createdAt,value
2024-02-12T00:04:20.393Z,991.6
2024-02-12T00:09:20.277Z,991.7
2024-02-12T00:14:20.320Z,991.7
2024-02-12T00:19:20.336Z,991.8
2024-02-12T00:24:20.272Z,991.9
2024-02-12T00:34:20.391Z,992.0
2024-02-12T00:39:20.276Z,992.0
2024-02-12T00:44:20.289Z,992.0
2024-02-12T00:49:20.319Z,992.1
2024-02-12T00:59:20.309Z,992.1
2024-02-12T01:04:20.286Z,992.1
2024-02-12T01:09:20.271Z,992.1
2024-02-12T01:14:20.359Z,992.0
2024-02-12T01:19:20.395Z,992.1
2024-02-12T01:24:20.302Z,992.2
2024-02-12T01:29:20.333Z,992.2
2024-02-12T01:34:20.474Z,992.2
2024-02-12T01:39:20.304Z,992.2
2024-02-12T01:44:20.439Z,992.3
2024-02-12T01:49:20.351Z,992.3
2024-02-12T01:54:20.316Z,992.5
2024-02-12T02:04:20.328Z,992.5
2024-02-12T02:09:20.319Z,992.6
2024-02-12T02:14:20.359Z,992.6
2024-02-12T02:19:20.375Z,992.6
2024-02-12T02:24:20.315Z,992.7
2024-02-12T02:29:20.409Z,992.8
2024-02-12T02:34:20.481Z,992.8
2024-02-12T02:44:20.460Z,992.8
2024-02-12T02:49:20.412Z,992.9
2024-02-12T02:54:20.375Z,993.0
2024-02-12T02:59:20.454Z,993.0
2024-02-12T03:04:20.391Z,993.0
2024-02-12T03:09:20.368Z,993.1
2024-02-12T03:14:20.425Z,993.1
2024-02-12T03:19:20.474Z,993.1
2024-02-12T03:24:20.396Z,993.2
2024-02-12T03:29:20.474Z,993.2
2024-02-12T03:34:20.452Z,993.2
2024-02-12T03:39:20.367Z,993.2
2024-02-12T03:49:20.427Z,993.4
2024-02-12T03:54:20.421Z,993.4
2024-02-12T03:59:20.451Z,993.5
2024-02-12T04:04:20.517Z,993.5
2024-02-12T04:09:20.459Z,993.4
2024-02-12T04:14:20.468Z,993.5
2024-02-12T04:19:20.482Z,993.5
2024-02-12T04:24:20.427Z,993.6
2024-02-12T04:29:20.483Z,993.6
2024-02-12T04:39:20.451Z,993.6
2024-02-12T04:44:20.517Z,993.6
2024-02-12T04:49:20.468Z,993.7
2024-02-12T04:54:20.485Z,993.7
2024-02-12T04:59:20.514Z,993.8
2024-02-12T05:09:20.494Z,994.0
2024-02-12T05:14:20.508Z,994.2
2024-02-12T05:19:20.520Z,994.2
2024-02-12T05:24:20.451Z,994.3
2024-02-12T05:29:20.508Z,994.3
2024-02-12T05:34:20.658Z,994.4
2024-02-12T05:39:20.593Z,994.5
2024-02-12T05:49:20.495Z,994.5
2024-02-12T05:54:20.487Z,994.5
2024-02-12T05:59:20.553Z,994.4
2024-02-12T06:04:20.505Z,994.5
2024-02-12T06:09:20.585Z,994.5
2024-02-12T06:14:20.528Z,994.4
2024-02-12T06:19:20.561Z,994.5
2024-02-12T06:24:20.514Z,994.5
2024-02-12T06:29:20.537Z,994.6
2024-02-12T06:34:20.565Z,994.7
2024-02-12T06:39:20.547Z,994.8
2024-02-12T06:44:20.561Z,994.8
2024-02-12T06:49:20.535Z,994.8
2024-02-12T06:54:20.535Z,995.0
2024-02-12T06:59:20.570Z,995.1
2024-02-12T07:04:20.527Z,995.2
2024-02-12T07:09:20.582Z,995.3
2024-02-12T07:14:20.616Z,995.4
2024-02-12T07:19:20.605Z,995.5
2024-02-12T07:24:20.561Z,995.6
2024-02-12T07:29:20.574Z,995.7
2024-02-12T07:34:20.667Z,995.7
2024-02-12T07:39:20.566Z,995.8
2024-02-12T07:44:20.562Z,995.9
2024-02-12T07:59:21.442Z,996.2
2024-02-12T08:09:20.604Z,996.3
2024-02-12T08:14:20.651Z,996.3
2024-02-12T08:19:20.796Z,996.3
2024-02-12T08:24:20.622Z,996.3
2024-02-12T08:29:20.679Z,996.4
2024-02-12T08:49:20.660Z,996.6
2024-02-12T08:54:20.607Z,996.7
2024-02-12T08:59:20.716Z,996.7
2024-02-12T09:09:20.633Z,996.8
2024-02-12T09:19:20.790Z,996.9
2024-02-12T09:29:20.691Z,997.0
2024-02-12T09:39:20.761Z,997.1
2024-02-12T09:44:20.641Z,997.3
2024-02-12T09:49:20.804Z,997.3
2024-02-12T09:54:20.660Z,997.4
2024-02-12T09:59:20.666Z,997.4
2024-02-12T10:04:20.667Z,997.5
2024-02-12T10:09:20.649Z,997.7
2024-02-12T10:14:20.703Z,997.9
2024-02-12T10:19:20.689Z,998.0
2024-02-12T10:34:20.945Z,998.3
2024-02-12T10:39:20.662Z,998.3
2024-02-12T10:44:20.761Z,998.4
2024-02-12T10:54:20.700Z,998.3
2024-02-12T10:59:20.768Z,998.4
2024-02-12T11:04:20.732Z,998.5
2024-02-12T11:14:20.803Z,998.6
2024-02-12T11:19:22.968Z,998.6
2024-02-12T11:24:20.714Z,998.6
2024-02-12T11:29:20.894Z,998.7
2024-02-12T11:39:20.717Z,998.8
2024-02-12T11:44:20.763Z,998.9
2024-02-12T11:49:20.741Z,998.9
2024-02-12T11:54:20.755Z,999.0
2024-02-12T11:59:20.798Z,999.1
2024-02-12T12:04:20.743Z,999.1
2024-02-12T12:09:20.742Z,999.2
2024-02-12T12:19:20.948Z,999.2
2024-02-12T12:24:20.734Z,999.3
2024-02-12T12:29:27.770Z,999.3
2024-02-12T12:34:20.791Z,999.3
2024-02-12T12:44:20.727Z,999.4
2024-02-12T12:49:22.940Z,999.5
2024-02-12T12:54:20.775Z,999.6
2024-02-12T13:04:20.759Z,999.6
2024-02-12T13:09:20.758Z,999.6
2024-02-12T13:19:20.786Z,999.8
2024-02-12T13:24:20.736Z,999.8
2024-02-12T13:29:24.708Z,999.8
2024-02-12T13:39:20.790Z,999.8
2024-02-12T13:49:20.842Z,999.9
2024-02-12T13:54:20.757Z,999.9
2024-02-12T13:59:20.808Z,1000.1
2024-02-12T14:09:20.756Z,1000.1
2024-02-12T14:14:20.768Z,1000.2
2024-02-12T14:19:20.752Z,1000.2
2024-02-12T14:29:20.782Z,1000.3
2024-02-12T14:34:20.951Z,1000.4
2024-02-12T14:39:20.746Z,1000.4
2024-02-12T14:44:20.760Z,1000.5
2024-02-12T14:49:34.055Z,1000.5
2024-02-12T14:54:20.741Z,1000.6
2024-02-12T15:04:20.753Z,1000.8
2024-02-12T15:09:20.759Z,1000.8
2024-02-12T15:19:20.793Z,1000.9
2024-02-12T15:24:20.788Z,1001.0
2024-02-12T15:29:20.829Z,1001.0
2024-02-12T15:34:20.857Z,1001.1
2024-02-12T15:39:20.767Z,1001.1
2024-02-12T15:44:20.850Z,1001.1
2024-02-12T15:49:20.815Z,1001.1
2024-02-12T15:59:20.807Z,1001.2
2024-02-12T16:09:20.842Z,1001.3
2024-02-12T16:14:20.785Z,1001.3
2024-02-12T16:19:20.803Z,1001.3
2024-02-12T16:24:20.813Z,1001.4
2024-02-12T16:29:21.069Z,1001.4
2024-02-12T16:34:20.792Z,1001.4
2024-02-12T16:44:20.771Z,1001.4
2024-02-12T16:49:20.880Z,1001.4
2024-02-12T16:54:20.794Z,1001.5
2024-02-12T16:59:20.763Z,1001.5
2024-02-12T17:04:20.773Z,1001.5
2024-02-12T17:14:20.882Z,1001.6
2024-02-12T17:19:20.838Z,1001.7
2024-02-12T17:24:20.801Z,1001.7
2024-02-12T17:29:20.848Z,1001.8
2024-02-12T17:34:20.873Z,1001.8
2024-02-12T17:39:20.873Z,1001.9
2024-02-12T17:44:20.835Z,1002.0
2024-02-12T17:49:20.883Z,1002.0
2024-02-12T17:54:20.795Z,1002.0
2024-02-12T17:59:20.827Z,1002.1
2024-02-12T18:04:20.819Z,1002.1
2024-02-12T18:09:20.802Z,1002.2
2024-02-12T18:14:20.882Z,1002.2
2024-02-12T18:19:20.822Z,1002.3
2024-02-12T18:24:20.795Z,1002.3
2024-02-12T18:29:20.852Z,1002.4
2024-02-12T18:34:20.823Z,1002.3
2024-02-12T18:39:20.793Z,1002.3
2024-02-12T18:54:20.801Z,1002.3
2024-02-12T18:59:20.829Z,1002.4
2024-02-12T19:04:20.798Z,1002.4
2024-02-12T19:09:20.818Z,1002.4
2024-02-12T19:14:20.851Z,1002.4
2024-02-12T19:19:20.868Z,1002.3
2024-02-12T19:24:20.801Z,1002.3
2024-02-12T19:29:20.818Z,1002.3
2024-02-12T19:34:20.867Z,1002.3
2024-02-12T19:39:20.875Z,1002.3
2024-02-12T19:44:20.864Z,1002.4
2024-02-12T19:49:20.836Z,1002.4
2024-02-12T19:54:20.839Z,1002.3
2024-02-12T19:59:20.885Z,1002.3
2024-02-12T20:04:20.787Z,1002.4
2024-02-12T20:09:20.825Z,1002.3
2024-02-12T20:14:20.832Z,1002.3
2024-02-12T20:19:20.857Z,1002.3
2024-02-12T20:24:20.833Z,1002.2
2024-02-12T20:29:20.880Z,1002.1
2024-02-12T20:34:20.938Z,1002.1
2024-02-12T20:39:20.858Z,1002.1
2024-02-12T20:44:20.958Z,1002.2
2024-02-12T20:49:20.846Z,1002.2
2024-02-12T20:54:20.832Z,1002.2
2024-02-12T20:59:20.841Z,1002.2
2024-02-12T21:04:20.898Z,1002.2
2024-02-12T21:09:20.844Z,1002.2
2024-02-12T21:14:20.833Z,1002.2
2024-02-12T21:24:20.848Z,1002.2
2024-02-12T21:29:20.942Z,1002.3
2024-02-12T21:34:21.050Z,1002.3
2024-02-12T21:39:20.812Z,1002.2
2024-02-12T21:44:20.901Z,1002.2
2024-02-12T21:49:21.004Z,1002.2
2024-02-12T21:54:20.965Z,1002.3
2024-02-12T21:59:20.829Z,1002.2
2024-02-12T22:04:20.865Z,1002.3
2024-02-12T22:09:20.807Z,1002.2
2024-02-12T22:14:20.857Z,1002.1
2024-02-12T22:19:20.853Z,1002.2
2024-02-12T22:24:20.808Z,1002.2
2024-02-12T22:29:20.849Z,1002.3
2024-02-12T22:34:21.005Z,1002.3
2024-02-12T22:39:20.814Z,1002.3
2024-02-12T22:44:20.848Z,1002.4
2024-02-12T22:49:20.924Z,1002.5
2024-02-12T22:54:20.826Z,1002.5
2024-02-12T22:59:20.877Z,1002.5
2024-02-12T23:04:20.859Z,1002.5
2024-02-12T23:09:20.862Z,1002.5
2024-02-12T23:14:20.856Z,1002.4
2024-02-12T23:19:20.919Z,1002.5
2024-02-12T23:24:20.878Z,1002.6
2024-02-12T23:29:20.905Z,1002.6
2024-02-12T23:34:21.153Z,1002.6
2024-02-12T23:39:20.884Z,1002.7
2024-02-12T23:44:20.873Z,1002.8
2024-02-12T23:49:20.983Z,1002.9
2024-02-12T23:54:20.892Z,1003.0
2024-02-12T23:59:20.937Z,1003.0
